^^
Station Historical Data
Daily Summary for February 11, 2018 Units:  English    Metric   Both
« Previous Day
Next Day »
Daily Weekly Monthly Yearly Custom
  High: Low: Average:
Temperature: TemperatureF °F 60.6 °F 68.8 °F
Dew Point: DewpointF °F 55.6 °F 58.1 °F
Humidity: Humidity% 44% 70%
Wind Speed: WindSpeedMPHmph 0.0mph 2.4mph
Wind Gust: WindSpeedGustMPHmph - -
Wind- - SSE
Pressure: PressureIn in 29.70 in -
Precipitation: 0.00 in    
Historical Graphs
 
 
Tabular Data for February 11, 2018
Time Temperature Dew Point Pressure Wind Wind Speed Wind Gust Humidity Rainfall Rate (Hourly) solar Conditions
TemperatureF °F DewpointF °F PressureIn in Calm     Humidity% HourlyPrecipIn in SolarRadiationWatts/m^2 W/m2 Conditions
00:03 62.2 °F 59.9 °F 29.78 in SE 2.0 mph 3.0 mph 92% 0.01 in 0.0 W/m2
00:09 62.2 °F 59.9 °F 29.79 in ESE 2.0 mph 3.0 mph 92% 0.01 in 0.0 W/m2
00:14 62.1 °F 59.4 °F 29.79 in SE 0.9 mph 4.0 mph 91% 0.01 in 0.0 W/m2
00:19 62.1 °F 59.4 °F 29.79 in Calm   5.0 mph 91% 0.01 in 0.0 W/m2
00:24 61.9 °F 59.2 °F 29.79 in SE 0.9 mph 3.0 mph 91% 0.01 in 0.0 W/m2
00:29 61.9 °F 59.2 °F 29.79 in Calm   1.0 mph 91% 0.01 in 0.0 W/m2
00:34 61.9 °F 59.2 °F 29.79 in Calm     91% 0.01 in 0.0 W/m2
00:39 61.7 °F 59.0 °F 29.78 in Calm     91% 0.01 in 0.0 W/m2
00:44 61.5 °F 58.8 °F 29.78 in Calm     91% 0.01 in 0.0 W/m2
00:49 61.5 °F 58.8 °F 29.78 in Calm     91% 0.01 in 0.0 W/m2
00:54 61.5 °F 59.2 °F 29.78 in SE 0.9 mph 5.0 mph 92% 0.01 in 0.0 W/m2
01:00 61.7 °F 59.4 °F 29.78 in SE 0.9 mph 5.0 mph 92% 0.00 in 0.0 W/m2
01:05 61.9 °F 59.5 °F 29.78 in Calm   1.0 mph 92% 0.00 in 0.0 W/m2
01:10 61.9 °F 59.5 °F 29.78 in SE 2.9 mph 3.0 mph 92% 0.00 in 0.0 W/m2
01:15 62.1 °F 59.7 °F 29.78 in Calm   3.0 mph 92% 0.00 in 0.0 W/m2
01:20 62.1 °F 59.7 °F 29.78 in SW 0.9 mph 5.0 mph 92% 0.00 in 0.0 W/m2
01:26 62.1 °F 59.4 °F 29.77 in SSW 7.0 mph 7.0 mph 91% 0.00 in 0.0 W/m2
01:31 62.1 °F 59.4 °F 29.77 in SE 2.0 mph 4.0 mph 91% 0.00 in 0.0 W/m2
01:36 62.1 °F 59.4 °F 29.76 in SE 2.9 mph 8.0 mph 91% 0.00 in 0.0 W/m2
01:41 61.9 °F 59.0 °F 29.76 in ESE 2.0 mph 9.0 mph 90% 0.00 in 0.0 W/m2
01:46 61.9 °F 59.2 °F 29.76 in SE 2.9 mph 8.0 mph 91% 0.00 in 0.0 W/m2
01:51 61.9 °F 59.2 °F 29.75 in SSE 2.0 mph 7.0 mph 91% 0.00 in 0.0 W/m2
01:56 61.9 °F 59.2 °F 29.75 in ESE 4.9 mph 10.0 mph 91% 0.00 in 0.0 W/m2
02:01 61.9 °F 59.2 °F 29.75 in Calm   7.0 mph 91% 0.00 in 0.0 W/m2
02:06 61.9 °F 59.2 °F 29.75 in Calm   8.0 mph 91% 0.00 in 0.0 W/m2
02:11 61.9 °F 59.0 °F 29.75 in SSW 4.0 mph 7.0 mph 90% 0.00 in 0.0 W/m2
02:17 61.7 °F 58.8 °F 29.75 in South 6.9 mph 7.0 mph 90% 0.00 in 0.0 W/m2
02:22 61.5 °F 58.6 °F 29.75 in SSE 2.9 mph 5.0 mph 90% 0.00 in 0.0 W/m2
02:28 61.3 °F 58.5 °F 29.74 in SE 2.0 mph 7.0 mph 90% 0.00 in 0.0 W/m2
02:33 61.2 °F 58.3 °F 29.74 in SSE 4.9 mph 7.0 mph 90% 0.00 in 0.0 W/m2
02:38 61.2 °F 58.3 °F 29.74 in SSE 2.0 mph 9.0 mph 90% 0.00 in 0.0 W/m2
02:43 61.0 °F 58.3 °F 29.74 in Calm   5.0 mph 91% 0.00 in 0.0 W/m2
02:48 61.0 °F 58.3 °F 29.74 in SSW 0.9 mph 7.0 mph 91% 0.00 in 0.0 W/m2
02:53 61.0 °F 58.3 °F 29.73 in SSW 2.9 mph 6.0 mph 91% 0.00 in 0.0 W/m2
02:58 60.8 °F 58.1 °F 29.73 in SE 2.0 mph 8.0 mph 91% 0.00 in 0.0 W/m2
03:03 60.8 °F 58.1 °F 29.73 in South 2.0 mph 6.0 mph 91% 0.00 in 0.0 W/m2
03:08 61.0 °F 58.3 °F 29.73 in SSE 0.9 mph 10.0 mph 91% 0.00 in 0.0 W/m2
03:13 61.0 °F 58.3 °F 29.73 in SW 0.9 mph 9.0 mph 91% 0.00 in 0.0 W/m2
03:18 61.0 °F 58.3 °F 29.73 in SSW 2.9 mph 10.0 mph 91% 0.00 in 0.0 W/m2
03:23 61.0 °F 58.3 °F 29.73 in South 4.0 mph 13.0 mph 91% 0.00 in 0.0 W/m2
03:29 60.8 °F 58.1 °F 29.72 in South 6.0 mph 7.0 mph 91% 0.00 in 0.0 W/m2
03:34 60.8 °F 58.1 °F 29.72 in SE 6.9 mph 11.0 mph 91% 0.00 in 0.0 W/m2
03:39 60.8 °F 58.1 °F 29.72 in SSE 2.9 mph 4.0 mph 91% 0.00 in 0.0 W/m2
03:44 60.8 °F 58.1 °F 29.72 in ESE 2.9 mph 11.0 mph 91% 0.00 in 0.0 W/m2
03:49 60.6 °F 57.9 °F 29.72 in SE 4.9 mph 6.0 mph 91% 0.00 in 0.0 W/m2
03:54 60.6 °F 57.9 °F 29.72 in Calm   5.0 mph 91% 0.00 in 0.0 W/m2
03:59 60.6 °F 57.7 °F 29.72 in SSE 4.9 mph 8.0 mph 90% 0.00 in 0.0 W/m2
04:04 60.8 °F 57.9 °F 29.72 in SSE 2.0 mph 8.0 mph 90% 0.00 in 0.0 W/m2
04:09 60.8 °F 57.9 °F 29.72 in SSE 2.9 mph 8.0 mph 90% 0.00 in 0.0 W/m2
04:15 60.8 °F 57.9 °F 29.72 in SE 0.9 mph 8.0 mph 90% 0.00 in 0.0 W/m2
04:20 60.8 °F 57.9 °F 29.72 in SSW 2.0 mph 6.0 mph 90% 0.00 in 0.0 W/m2
04:25 61.0 °F 58.1 °F 29.72 in SSW 2.9 mph 6.0 mph 90% 0.00 in 0.0 W/m2
04:30 61.0 °F 57.7 °F 29.73 in SSW 0.9 mph 4.0 mph 89% 0.00 in 0.0 W/m2
04:35 61.2 °F 58.3 °F 29.73 in SSW 2.0 mph 7.0 mph 90% 0.00 in 0.0 W/m2
04:40 61.2 °F 57.9 °F 29.73 in ESE 4.9 mph 10.0 mph 89% 0.00 in 0.0 W/m2
04:45 61.2 °F 57.9 °F 29.73 in West 0.9 mph 7.0 mph 89% 0.00 in 0.0 W/m2
04:50 61.2 °F 57.9 °F 29.73 in SE 8.9 mph 9.0 mph 89% 0.00 in 0.0 W/m2
04:55 61.2 °F 57.9 °F 29.73 in East 6.0 mph 9.0 mph 89% 0.00 in 0.0 W/m2
05:01 61.2 °F 57.9 °F 29.73 in SSW 0.9 mph 4.0 mph 89% 0.00 in 0.0 W/m2
05:06 61.2 °F 57.6 °F 29.73 in SW 4.9 mph 7.0 mph 88% 0.00 in 0.0 W/m2
05:11 61.3 °F 57.7 °F 29.73 in SE 0.9 mph 5.0 mph 88% 0.00 in 0.0 W/m2
05:16 61.3 °F 57.7 °F 29.74 in Calm   3.0 mph 88% 0.00 in 0.0 W/m2
05:21 61.3 °F 57.7 °F 29.73 in SSW 0.9 mph 2.0 mph 88% 0.00 in 0.0 W/m2
05:26 61.3 °F 57.7 °F 29.74 in SSW 2.0 mph 3.0 mph 88% 0.00 in 0.0 W/m2
05:31 61.5 °F 57.9 °F 29.74 in SE 2.0 mph 4.0 mph 88% 0.00 in 0.0 W/m2
05:36 61.5 °F 57.6 °F 29.74 in SE 0.9 mph 2.0 mph 87% 0.00 in 0.0 W/m2
05:41 61.5 °F 57.6 °F 29.74 in Calm     87% 0.00 in 0.0 W/m2
05:46 61.5 °F 57.4 °F 29.74 in Calm   2.0 mph 86% 0.00 in 0.0 W/m2
05:52 61.5 °F 57.4 °F 29.74 in Calm     86% 0.00 in 0.0 W/m2
05:58 61.5 °F 57.0 °F 29.75 in Calm   3.0 mph 85% 0.00 in 0.0 W/m2
06:03 61.5 °F 57.0 °F 29.75 in South 2.0 mph 3.0 mph 85% 0.00 in 0.0 W/m2
06:08 61.9 °F 57.4 °F 29.75 in Calm   1.0 mph 85% 0.00 in 0.0 W/m2
06:13 61.9 °F 57.0 °F 29.75 in Calm   1.0 mph 84% 0.00 in 0.0 W/m2
06:18 61.9 °F 57.4 °F 29.75 in Calm   2.0 mph 85% 0.00 in 0.0 W/m2
06:23 61.9 °F 57.0 °F 29.75 in Calm     84% 0.00 in 0.0 W/m2
06:28 61.9 °F 57.0 °F 29.75 in Calm   4.0 mph 84% 0.00 in 0.0 W/m2
06:34 61.9 °F 57.4 °F 29.75 in Calm     85% 0.00 in 0.0 W/m2
06:39 61.9 °F 57.6 °F 29.75 in Calm     86% 0.00 in 0.0 W/m2
06:44 61.9 °F 57.6 °F 29.75 in Calm     86% 0.00 in 0.0 W/m2
06:49 61.9 °F 57.9 °F 29.75 in Calm   2.0 mph 87% 0.00 in 0.0 W/m2
06:54 61.9 °F 57.9 °F 29.76 in Calm     87% 0.00 in 0.0 W/m2
06:59 61.7 °F 57.7 °F 29.76 in Calm     87% 0.00 in 7.0 W/m2
07:04 61.7 °F 57.4 °F 29.76 in SE 0.9 mph 4.0 mph 86% 0.00 in 18.0 W/m2
07:10 61.5 °F 56.7 °F 29.76 in SE 4.0 mph 7.0 mph 84% 0.00 in 30.0 W/m2
07:15 61.9 °F 56.7 °F 29.76 in SE 0.9 mph 5.0 mph 83% 0.00 in 37.0 W/m2
07:20 62.2 °F 56.7 °F 29.76 in SE 0.9 mph 6.0 mph 82% 0.00 in 40.0 W/m2
07:25 62.6 °F 57.0 °F 29.76 in ESE 4.0 mph 7.0 mph 82% 0.00 in 40.0 W/m2
07:30 63.0 °F 57.4 °F 29.76 in Calm   1.0 mph 82% 0.00 in 44.0 W/m2
07:35 63.0 °F 57.4 °F 29.77 in Calm   1.0 mph 82% 0.00 in 47.0 W/m2
07:40 63.1 °F 57.2 °F 29.77 in Calm     81% 0.00 in 47.0 W/m2
07:45 63.1 °F 56.8 °F 29.77 in Calm   2.0 mph 80% 0.00 in 53.0 W/m2
07:50 63.3 °F 56.7 °F 29.77 in ESE 0.9 mph 2.0 mph 79% 0.00 in 62.0 W/m2
07:55 63.5 °F 56.5 °F 29.77 in ESE 2.0 mph 5.0 mph 78% 0.00 in 72.0 W/m2
08:00 63.7 °F 56.7 °F 29.77 in East 2.0 mph 2.0 mph 78% 0.00 in 84.0 W/m2
08:05 64.0 °F 57.0 °F 29.77 in Calm   3.0 mph 78% 0.00 in 97.0 W/m2
08:11 64.2 °F 56.8 °F 29.78 in Calm   1.0 mph 77% 0.00 in 105.0 W/m2
08:16 64.4 °F 57.0 °F 29.78 in Calm   1.0 mph 77% 0.00 in 113.0 W/m2
08:21 64.6 °F 57.2 °F 29.78 in ENE 2.0 mph 3.0 mph 77% 0.00 in 125.0 W/m2
08:26 64.9 °F 56.8 °F 29.78 in Calm   4.0 mph 75% 0.00 in 144.0 W/m2
08:31 65.1 °F 56.7 °F 29.78 in Calm   1.0 mph 74% 0.00 in 163.0 W/m2
08:36 65.5 °F 57.4 °F 29.78 in SE 2.0 mph 3.0 mph 75% 0.00 in 188.0 W/m2
08:41 65.7 °F 56.8 °F 29.78 in Calm   3.0 mph 73% 0.00 in 202.0 W/m2
08:46 66.0 °F 57.2 °F 29.78 in ENE 2.0 mph 4.0 mph 73% 0.00 in 213.0 W/m2
08:51 66.6 °F 57.2 °F 29.79 in ESE 2.0 mph 4.0 mph 72% 0.00 in 197.0 W/m2
08:57 66.7 °F 57.0 °F 29.79 in Calm   4.0 mph 71% 0.00 in 185.0 W/m2
09:02 66.9 °F 57.2 °F 29.78 in NE 2.0 mph 4.0 mph 71% 0.00 in 197.0 W/m2
09:07 66.9 °F 56.8 °F 29.78 in East 2.9 mph 5.0 mph 70% 0.00 in 227.0 W/m2
09:12 67.3 °F 57.2 °F 29.79 in NE 2.9 mph 4.0 mph 70% 0.00 in 239.0 W/m2
09:18 67.5 °F 57.0 °F 29.79 in ESE 0.9 mph 5.0 mph 69% 0.00 in 237.0 W/m2
09:23 67.5 °F 57.7 °F 29.79 in ESE 2.9 mph 5.0 mph 71% 0.00 in 225.0 W/m2
09:28 67.5 °F 57.4 °F 29.79 in Calm   7.0 mph 70% 0.00 in 237.0 W/m2
09:33 67.6 °F 57.6 °F 29.79 in SE 4.0 mph 6.0 mph 70% 0.00 in 257.0 W/m2
09:38 67.8 °F 57.7 °F 29.79 in Calm   7.0 mph 70% 0.00 in 322.0 W/m2
09:43 68.2 °F 58.5 °F 29.79 in NE 2.9 mph 5.0 mph 71% 0.00 in 338.0 W/m2
09:48 68.5 °F 58.3 °F 29.79 in ESE 0.9 mph 4.0 mph 70% 0.00 in 353.0 W/m2
09:53 68.9 °F 58.6 °F 29.79 in North 4.0 mph 5.0 mph 70% 0.00 in 411.0 W/m2
09:59 69.4 °F 58.5 °F 29.79 in NE 4.0 mph 6.0 mph 68% 0.00 in 475.0 W/m2
10:04 69.6 °F 58.1 °F 29.78 in East 0.9 mph 6.0 mph 67% 0.00 in 517.0 W/m2
10:09 70.2 °F 58.3 °F 29.78 in Calm   8.0 mph 66% 0.00 in 520.0 W/m2
10:14 70.7 °F 57.9 °F 29.78 in NE 4.0 mph 6.0 mph 64% 0.00 in 555.0 W/m2
10:19 71.2 °F 58.5 °F 29.78 in East 4.9 mph 9.0 mph 64% 0.00 in 531.0 W/m2
10:24 71.4 °F 57.2 °F 29.78 in NNE 6.0 mph 9.0 mph 61% 0.00 in 571.0 W/m2
10:29 72.0 °F 58.3 °F 29.78 in NE 2.0 mph 6.0 mph 62% 0.00 in 619.0 W/m2
10:35 72.5 °F 58.8 °F 29.79 in North 6.9 mph 7.0 mph 62% 0.00 in 831.0 W/m2
10:40 73.0 °F 58.3 °F 29.79 in ENE 4.9 mph 7.0 mph 60% 0.00 in 659.0 W/m2
10:45 73.2 °F 58.1 °F 29.79 in East 6.0 mph 9.0 mph 59% 0.00 in 626.0 W/m2
10:50 73.2 °F 57.6 °F 29.79 in ENE 4.9 mph 8.0 mph 58% 0.00 in 670.0 W/m2
10:56 73.0 °F 57.9 °F 29.79 in Calm   9.0 mph 59% 0.00 in 654.0 W/m2
11:01 73.2 °F 59.0 °F 29.79 in SSE 6.0 mph 8.0 mph 61% 0.00 in 550.0 W/m2
11:06 73.2 °F 58.1 °F 29.79 in ESE 4.9 mph 13.0 mph 59% 0.00 in 543.0 W/m2
11:11 73.2 °F 58.1 °F 29.79 in NE 8.9 mph 11.0 mph 59% 0.00 in 531.0 W/m2
11:17 72.9 °F 58.6 °F 29.79 in North 2.0 mph 10.0 mph 61% 0.00 in 508.0 W/m2
11:22 72.3 °F 58.6 °F 29.79 in NE 4.9 mph 7.0 mph 62% 0.00 in 499.0 W/m2
11:28 72.1 °F 58.5 °F 29.79 in East 11.0 mph 11.0 mph 62% 0.00 in 519.0 W/m2
11:33 72.1 °F 58.8 °F 29.79 in ENE 0.9 mph 8.0 mph 63% 0.00 in 626.0 W/m2
11:38 72.5 °F 59.2 °F 29.79 in SE 0.9 mph 7.0 mph 63% 0.00 in 775.0 W/m2
11:43 73.0 °F 59.7 °F 29.79 in ENE 2.9 mph 5.0 mph 63% 0.00 in 584.0 W/m2
11:48 73.6 °F 58.8 °F 29.79 in SE 2.9 mph 5.0 mph 60% 0.00 in 708.0 W/m2
11:53 73.9 °F 59.2 °F 29.79 in NE 6.9 mph 11.0 mph 60% 0.00 in 1097.0 W/m2
11:58 74.7 °F 59.9 °F 29.79 in SSE 4.0 mph 8.0 mph 60% 0.00 in 1071.0 W/m2
12:03 75.2 °F 59.4 °F 29.79 in NE 6.9 mph 7.0 mph 58% 0.00 in 1056.0 W/m2
12:09 75.6 °F 59.7 °F 29.79 in East 6.0 mph 10.0 mph 58% 0.00 in 963.0 W/m2
12:15 75.9 °F 58.1 °F 29.79 in NNE 0.9 mph 7.0 mph 54% 0.00 in 854.0 W/m2
12:20 76.3 °F 58.5 °F 29.79 in SSE 4.9 mph 9.0 mph 54% 0.00 in 763.0 W/m2
12:25 76.5 °F 58.1 °F 29.79 in East 4.9 mph 9.0 mph 53% 0.00 in 1220.0 W/m2
12:30 76.6 °F 57.7 °F 29.78 in NNE 6.9 mph 8.0 mph 52% 0.00 in 705.0 W/m2
12:35 76.6 °F 57.7 °F 29.78 in North 4.9 mph 11.0 mph 52% 0.00 in 814.0 W/m2
12:40 76.5 °F 57.6 °F 29.78 in ENE 2.0 mph 8.0 mph 52% 0.00 in 485.0 W/m2
12:45 76.5 °F 57.6 °F 29.78 in ENE 6.9 mph 11.0 mph 52% 0.00 in 1155.0 W/m2
12:51 76.8 °F 59.0 °F 29.78 in East 2.0 mph 12.0 mph 54% 0.00 in 1211.0 W/m2
12:56 77.4 °F 58.3 °F 29.78 in North 2.9 mph 7.0 mph 52% 0.00 in 1206.0 W/m2
13:01 78.1 °F 59.5 °F 29.78 in SSE 11.0 mph 11.0 mph 53% 0.00 in 1229.0 W/m2
13:06 78.6 °F 60.1 °F 29.78 in ESE 4.0 mph 11.0 mph 53% 0.00 in 1187.0 W/m2
13:11 78.6 °F 59.0 °F 29.78 in SE 2.9 mph 8.0 mph 51% 0.00 in 1190.0 W/m2
13:16 78.6 °F 59.0 °F 29.78 in ESE 2.0 mph 9.0 mph 51% 0.00 in 1179.0 W/m2
13:21 78.6 °F 58.5 °F 29.78 in NE 4.9 mph 11.0 mph 50% 0.00 in 956.0 W/m2
13:26 78.6 °F 58.5 °F 29.77 in NE 0.9 mph 7.0 mph 50% 0.00 in 383.0 W/m2
13:31 78.4 °F 58.8 °F 29.77 in North 4.9 mph 14.0 mph 51% 0.00 in 302.0 W/m2
13:36 78.6 °F 57.9 °F 29.77 in SE 4.9 mph 15.0 mph 49% 0.00 in 1352.0 W/m2
13:42 78.8 °F 58.1 °F 29.77 in NNE 4.9 mph 7.0 mph 49% 0.00 in 341.0 W/m2
13:47 78.4 °F 58.8 °F 29.77 in ESE 2.9 mph 6.0 mph 51% 0.00 in 299.0 W/m2
13:52 78.1 °F 57.4 °F 29.76 in NNE 4.0 mph 10.0 mph 49% 0.00 in 294.0 W/m2
13:57 77.5 °F 57.9 °F 29.76 in North 4.9 mph 6.0 mph 51% 0.00 in 445.0 W/m2
14:02 77.4 °F 57.2 °F 29.76 in NE 0.9 mph 9.0 mph 50% 0.00 in 654.0 W/m2
14:07 77.5 °F 57.4 °F 29.75 in ENE 2.9 mph 6.0 mph 50% 0.00 in 334.0 W/m2
14:12 77.5 °F 57.4 °F 29.75 in ENE 6.0 mph 11.0 mph 50% 0.00 in 446.0 W/m2
14:17 78.1 °F 57.4 °F 29.75 in North 2.9 mph 9.0 mph 49% 0.00 in 1241.0 W/m2
14:22 79.0 °F 57.0 °F 29.75 in NNE 8.1 mph 13.0 mph 47% 0.00 in 267.0 W/m2
14:27 78.6 °F 56.7 °F 29.75 in NNE 4.0 mph 10.0 mph 47% 0.00 in 236.0 W/m2
14:33 78.3 °F 57.6 °F 29.74 in NNW 4.0 mph 6.0 mph 49% 0.00 in 1187.0 W/m2
14:38 78.6 °F 57.9 °F 29.74 in East 6.9 mph 11.0 mph 49% 0.00 in 343.0 W/m2
14:43 79.5 °F 58.6 °F 29.73 in NE 6.9 mph 9.0 mph 49% 0.00 in 1069.0 W/m2
14:48 80.1 °F 57.4 °F 29.72 in Calm   5.0 mph 46% 0.00 in 348.0 W/m2
14:53 80.2 °F 57.6 °F 29.72 in NNE 2.0 mph 7.0 mph 46% 0.00 in 1055.0 W/m2
14:58 80.8 °F 58.6 °F 29.72 in NE 6.9 mph 10.0 mph 47% 0.00 in 1106.0 W/m2
15:03 81.1 °F 57.2 °F 29.72 in NW 2.9 mph 8.0 mph 44% 0.00 in 246.0 W/m2
15:08 81.1 °F 57.2 °F 29.72 in North 4.0 mph 11.0 mph 44% 0.00 in 299.0 W/m2
15:13 80.6 °F 57.4 °F 29.71 in NNE 2.0 mph 7.0 mph 45% 0.00 in 1106.0 W/m2
15:18 81.0 °F 58.3 °F 29.71 in NW 15.0 mph 16.0 mph 46% 0.00 in 272.0 W/m2
15:24 79.5 °F 58.1 °F 29.72 in NNW 6.0 mph 15.0 mph 48% 0.00 in 1085.0 W/m2
15:29 79.0 °F 58.8 °F 29.72 in NNE 8.9 mph 18.0 mph 50% 0.00 in 1049.0 W/m2
15:34 78.3 °F 58.6 °F 29.72 in NNE 4.9 mph 9.0 mph 51% 0.00 in 947.0 W/m2
15:39 78.3 °F 57.0 °F 29.71 in North 8.9 mph 12.0 mph 48% 0.00 in 891.0 W/m2
15:44 78.3 °F 57.0 °F 29.71 in NNE 6.9 mph 11.0 mph 48% 0.00 in 874.0 W/m2
15:49 78.6 °F 57.2 °F 29.72 in North 6.9 mph 7.0 mph 48% 0.00 in 849.0 W/m2
15:54 79.0 °F 58.1 °F 29.71 in North 4.0 mph 11.0 mph 49% 0.00 in 770.0 W/m2
15:59 79.2 °F 57.7 °F 29.71 in NE 6.0 mph 11.0 mph 48% 0.00 in 782.0 W/m2
16:04 79.3 °F 57.4 °F 29.71 in NE 4.9 mph 10.0 mph 47% 0.00 in 649.0 W/m2
16:10 79.5 °F 57.6 °F 29.70 in NNW 4.0 mph 7.0 mph 47% 0.00 in 633.0 W/m2
16:15 79.9 °F 57.2 °F 29.70 in NE 4.0 mph 5.0 mph 46% 0.00 in 694.0 W/m2
16:20 80.1 °F 58.1 °F 29.70 in NW 2.9 mph 6.0 mph 47% 0.00 in 729.0 W/m2
16:25 80.1 °F 56.8 °F 29.70 in North 4.0 mph 10.0 mph 45% 0.00 in 190.0 W/m2
16:30 79.7 °F 57.7 °F 29.70 in NNW 2.0 mph 3.0 mph 47% 0.00 in 200.0 W/m2
16:35 79.3 °F 56.8 °F 29.70 in North 2.0 mph 8.0 mph 46% 0.00 in 156.0 W/m2
16:40 79.0 °F 57.6 °F 29.70 in North 4.0 mph 7.0 mph 48% 0.00 in 357.0 W/m2
16:45 78.6 °F 57.2 °F 29.70 in North 2.9 mph 7.0 mph 48% 0.00 in 142.0 W/m2
16:51 78.3 °F 57.6 °F 29.70 in NNW 2.0 mph 5.0 mph 49% 0.00 in 153.0 W/m2
16:57 77.7 °F 57.6 °F 29.70 in North 6.0 mph 12.0 mph 50% 0.00 in 183.0 W/m2
17:02 77.2 °F 57.0 °F 29.70 in NNW 4.9 mph 8.0 mph 50% 0.00 in 165.0 W/m2
17:07 77.0 °F 57.6 °F 29.70 in NNW 2.9 mph 9.0 mph 51% 0.00 in 146.0 W/m2
17:12 76.8 °F 57.4 °F 29.70 in North 4.0 mph 7.0 mph 51% 0.00 in 123.0 W/m2
17:17 76.5 °F 57.0 °F 29.70 in NNE 4.0 mph 8.0 mph 51% 0.00 in 98.0 W/m2
17:22 76.3 °F 57.9 °F 29.70 in NE 6.9 mph 9.0 mph 53% 0.00 in 81.0 W/m2
17:27 75.9 °F 57.0 °F 29.70 in NNE 2.0 mph 5.0 mph 52% 0.00 in 67.0 W/m2
17:32 75.7 °F 57.4 °F 29.70 in NNE 4.9 mph 7.0 mph 53% 0.00 in 58.0 W/m2
17:37 75.6 °F 57.2 °F 29.70 in North 2.9 mph 6.0 mph 53% 0.00 in 58.0 W/m2
17:42 75.4 °F 57.6 °F 29.70 in NNE 2.9 mph 5.0 mph 54% 0.00 in 65.0 W/m2
17:48 75.4 °F 57.0 °F 29.70 in NNE 2.9 mph 5.0 mph 53% 0.00 in 77.0 W/m2
17:53 75.4 °F 57.6 °F 29.70 in Calm   3.0 mph 54% 0.00 in 86.0 W/m2
17:58 75.4 °F 57.0 °F 29.70 in NW 2.0 mph 6.0 mph 53% 0.00 in 95.0 W/m2
18:03 75.4 °F 56.5 °F 29.71 in North 2.0 mph 3.0 mph 52% 0.00 in 93.0 W/m2
18:08 75.6 °F 56.7 °F 29.71 in Calm   5.0 mph 52% 0.00 in 137.0 W/m2
18:13 75.6 °F 56.7 °F 29.71 in North 0.9 mph 4.0 mph 52% 0.00 in 102.0 W/m2
18:18 75.6 °F 55.6 °F 29.71 in NW 2.9 mph 5.0 mph 50% 0.00 in 77.0 W/m2
18:23 75.7 °F 56.3 °F 29.71 in NNW 2.0 mph 4.0 mph 51% 0.00 in 46.0 W/m2
18:28 75.7 °F 57.9 °F 29.72 in West 2.0 mph 3.0 mph 54% 0.00 in 35.0 W/m2
18:33 75.2 °F 59.4 °F 29.72 in WSW 6.9 mph 8.0 mph 58% 0.00 in 39.0 W/m2
18:39 74.7 °F 59.9 °F 29.72 in Calm   5.0 mph 60% 0.00 in 42.0 W/m2
18:44 74.1 °F 61.5 °F 29.72 in Calm   2.0 mph 65% 0.00 in 39.0 W/m2
18:49 73.6 °F 61.5 °F 29.73 in Calm   2.0 mph 66% 0.00 in 26.0 W/m2
18:54 73.0 °F 61.5 °F 29.74 in WNW 2.0 mph 5.0 mph 67% 0.00 in 18.0 W/m2
18:59 72.7 °F 60.6 °F 29.74 in NNW 0.9 mph 3.0 mph 66% 0.00 in 9.0 W/m2
19:04 72.1 °F 60.6 °F 29.75 in NW 0.9 mph 4.0 mph 67% 0.00 in 9.0 W/m2
19:09 71.8 °F 60.3 °F 29.75 in Calm   3.0 mph 67% 0.00 in 5.0 W/m2
19:14 71.4 °F 60.3 °F 29.76 in Calm   3.0 mph 68% 0.00 in 0.0 W/m2
19:19 71.2 °F 60.1 °F 29.76 in WNW 4.0 mph 11.0 mph 68% 0.00 in 0.0 W/m2
19:25 70.7 °F 60.1 °F 29.76 in WSW 0.9 mph 6.0 mph 69% 0.00 in 0.0 W/m2
19:30 70.3 °F 60.1 °F 29.76 in Calm   5.0 mph 70% 0.00 in 0.0 W/m2
19:35 70.0 °F 59.7 °F 29.75 in West 2.9 mph 6.0 mph 70% 0.00 in 0.0 W/m2
19:40 69.6 °F 59.7 °F 29.76 in Calm   1.0 mph 71% 0.00 in 0.0 W/m2
19:45 69.6 °F 59.7 °F 29.76 in NNE 6.0 mph 7.0 mph 71% 0.00 in 0.0 W/m2
19:50 69.4 °F 60.1 °F 29.77 in Calm   2.0 mph 72% 0.00 in 0.0 W/m2
19:55 69.4 °F 60.1 °F 29.77 in Calm   3.0 mph 72% 0.00 in 0.0 W/m2
20:00 69.3 °F 59.5 °F 29.78 in NW 2.0 mph 4.0 mph 71% 0.00 in 0.0 W/m2
20:06 69.3 °F 59.5 °F 29.78 in Calm   3.0 mph 71% 0.00 in 0.0 W/m2
20:11 69.3 °F 59.5 °F 29.78 in Calm   1.0 mph 71% 0.00 in 0.0 W/m2
20:17 69.3 °F 59.5 °F 29.78 in Calm     71% 0.00 in 0.0 W/m2
20:22 69.3 °F 59.0 °F 29.78 in Calm     70% 0.00 in 0.0 W/m2
20:27 69.3 °F 59.0 °F 29.79 in Calm     70% 0.00 in 0.0 W/m2
20:32 69.1 °F 58.8 °F 29.79 in Calm   1.0 mph 70% 0.00 in 0.0 W/m2
20:37 69.1 °F 59.4 °F 29.79 in Calm     71% 0.00 in 0.0 W/m2
20:42 69.1 °F 59.4 °F 29.78 in Calm     71% 0.00 in 0.0 W/m2
20:47 69.3 °F 59.5 °F 29.79 in SSW 0.9 mph 3.0 mph 71% 0.00 in 0.0 W/m2
20:52 69.3 °F 59.9 °F 29.79 in Calm   1.0 mph 72% 0.00 in 0.0 W/m2
20:58 69.3 °F 59.9 °F 29.79 in Calm   2.0 mph 72% 0.00 in 0.0 W/m2
21:03 69.3 °F 60.6 °F 29.78 in Calm   2.0 mph 74% 0.00 in 0.0 W/m2
21:08 69.3 °F 60.6 °F 29.78 in Calm   2.0 mph 74% 0.00 in 0.0 W/m2
21:13 69.1 °F 60.4 °F 29.78 in SSE 0.9 mph 1.0 mph 74% 0.00 in 0.0 W/m2
21:18 68.9 °F 59.9 °F 29.78 in Calm   1.0 mph 73% 0.00 in 0.0 W/m2
21:23 68.7 °F 59.7 °F 29.78 in Calm   1.0 mph 73% 0.00 in 0.0 W/m2
21:28 68.7 °F 59.7 °F 29.78 in SE 0.9 mph 2.0 mph 73% 0.00 in 0.0 W/m2
21:33 68.7 °F 60.1 °F 29.78 in SE 0.9 mph 2.0 mph 74% 0.00 in 0.0 W/m2
21:38 68.7 °F 60.1 °F 29.78 in SE 6.9 mph 7.0 mph 74% 0.00 in 0.0 W/m2
21:43 68.5 °F 59.9 °F 29.78 in Calm   2.0 mph 74% 0.00 in 0.0 W/m2
21:49 68.4 °F 59.7 °F 29.78 in Calm   5.0 mph 74% 0.00 in 0.0 W/m2
21:54 68.2 °F 59.5 °F 29.79 in SSE 0.9 mph 6.0 mph 74% 0.00 in 0.0 W/m2
21:59 68.0 °F 59.0 °F 29.79 in Calm   2.0 mph 73% 0.00 in 0.0 W/m2
22:04 67.8 °F 59.2 °F 29.79 in South 2.0 mph 2.0 mph 74% 0.00 in 0.0 W/m2
22:09 67.8 °F 58.8 °F 29.79 in SE 0.9 mph 4.0 mph 73% 0.00 in 0.0 W/m2
22:14 67.8 °F 58.8 °F 29.80 in Calm     73% 0.00 in 0.0 W/m2
22:20 67.8 °F 58.8 °F 29.80 in Calm   3.0 mph 73% 0.00 in 0.0 W/m2
22:26 67.8 °F 58.8 °F 29.81 in SE 2.0 mph 4.0 mph 73% 0.00 in 0.0 W/m2
22:31 67.8 °F 58.8 °F 29.81 in SSE 0.9 mph 5.0 mph 73% 0.00 in 0.0 W/m2
22:37 67.6 °F 58.6 °F 29.81 in Calm   4.0 mph 73% 0.00 in 0.0 W/m2
22:42 67.6 °F 59.0 °F 29.81 in Calm   1.0 mph 74% 0.00 in 0.0 W/m2
22:47 67.6 °F 58.6 °F 29.82 in Calm   1.0 mph 73% 0.00 in 0.0 W/m2
22:52 67.5 °F 58.1 °F 29.82 in Calm   1.0 mph 72% 0.00 in 0.0 W/m2
22:57 67.5 °F 58.5 °F 29.82 in Calm     73% 0.00 in 0.0 W/m2
23:03 67.5 °F 58.1 °F 29.82 in Calm   3.0 mph 72% 0.00 in 0.0 W/m2
23:09 67.5 °F 57.7 °F 29.82 in SW 0.9 mph 2.0 mph 71% 0.00 in 0.0 W/m2
23:14 67.5 °F 57.7 °F 29.83 in SSW 0.9 mph 3.0 mph 71% 0.00 in 0.0 W/m2
23:19 67.5 °F 57.7 °F 29.83 in SW 4.0 mph 4.0 mph 71% 0.00 in 0.0 W/m2
23:25 67.5 °F 57.7 °F 29.83 in Calm   2.0 mph 71% 0.00 in 0.0 W/m2
23:30 67.5 °F 57.7 °F 29.83 in Calm   2.0 mph 71% 0.00 in 0.0 W/m2
23:35 67.5 °F 58.1 °F 29.83 in SSE 2.0 mph 3.0 mph 72% 0.00 in 0.0 W/m2
23:40 67.5 °F 58.1 °F 29.84 in South 2.0 mph 4.0 mph 72% 0.00 in 0.0 W/m2
23:45 67.5 °F 57.7 °F 29.84 in SSW 2.9 mph 3.0 mph 71% 0.00 in 0.0 W/m2
23:51 67.5 °F 57.4 °F 29.84 in SSE 2.0 mph 6.0 mph 70% 0.00 in 0.0 W/m2
23:56 67.5 °F 57.7 °F 29.83 in Calm   1.0 mph 71% 0.00 in 0.0 W/m2
Olympia, Windhoek, Namibia
Compliments of Weather Underground - 3.25 mb